Time;durP1;ratioP1;P1;durP2;ratioP2;P2;SDS_P1;SDS_P2;PMS_P1;PMS_P2;Temp;Humidity;BMP_temperature;BMP_pressure;BME280_temperature;BME280_humidity;BME280_pressure;Samples;Min_cycle;Max_cycle;Signal;HPM_P1;HPM_P2
2022/11/05 00:09:29;;;;;;;29.97;27.37;;;9.50;99.90;;;;;;5010351;28;20484;-49
2022/11/05 00:17:25;;;;;;;30.70;28.00;;;9.50;99.90;;;;;;4997183;28;20499;-53
2022/11/05 00:19:51;;;;;;;32.20;29.33;;;9.50;99.90;;;;;;5004627;28;20485;-46
2022/11/05 00:25:12;;;;;;;31.90;28.80;;;9.40;99.90;;;;;;4999029;28;20186;-51
2022/11/05 00:27:38;;;;;;;30.77;27.87;;;9.50;99.90;;;;;;5008616;28;20440;-50
2022/11/05 00:30:05;;;;;;;31.30;28.50;;;9.50;99.90;;;;;;5004153;28;20745;-52
2022/11/05 00:32:31;;;;;;;31.20;28.17;;;9.40;99.90;;;;;;4995560;28;20207;-52
2022/11/05 00:34:57;;;;;;;31.97;29.00;;;9.50;99.90;;;;;;5004073;28;20462;-49
2022/11/05 00:37:24;;;;;;;33.13;30.20;;;9.50;99.90;;;;;;4992783;28;20478;-49
2022/11/05 00:39:49;;;;;;;31.40;28.60;;;9.50;99.90;;;;;;4995033;28;20210;-55
2022/11/05 00:45:02;;;;;;;31.17;28.27;;;9.60;99.90;;;;;;4998517;28;20237;-50
2022/11/05 00:50:13;;;;;;;32.87;29.77;;;9.60;99.90;;;;;;5004682;28;20800;-51
2022/11/05 00:55:33;;;;;;;34.27;31.30;;;9.60;99.90;;;;;;4990747;28;20774;-53
2022/11/05 00:57:59;;;;;;;34.37;31.13;;;9.60;99.90;;;;;;5009654;28;20903;-49
2022/11/05 01:00:28;;;;;;;33.50;30.10;;;9.50;99.90;;;;;;5002274;28;20939;-52
2022/11/05 01:03:00;;;;;;;35.00;31.80;;;9.60;99.90;;;;;;5009530;28;20426;-52
2022/11/05 01:05:27;;;;;;;35.23;31.83;;;9.60;99.90;;;;;;5005256;28;20480;-47
2022/11/05 01:07:53;;;;;;;36.77;33.07;;;9.60;99.90;;;;;;5008345;28;20415;-52
2022/11/05 01:10:20;;;;;;;35.23;31.53;;;9.60;99.90;;;;;;5007535;28;20859;-51
2022/11/05 01:12:45;;;;;;;37.93;34.23;;;9.60;99.90;;;;;;5002031;28;20554;-51
2022/11/05 01:15:11;;;;;;;35.97;32.27;;;9.60;99.90;;;;;;5000539;28;20923;-53
2022/11/05 01:17:37;;;;;;;36.80;33.10;;;9.60;99.90;;;;;;5006041;28;20176;-49
2022/11/05 01:20:03;;;;;;;35.80;32.40;;;9.60;99.90;;;;;;5009868;28;20222;-47
2022/11/05 01:22:29;;;;;;;35.83;32.13;;;9.60;99.90;;;;;;5007211;28;20187;-53
2022/11/05 01:24:54;;;;;;;37.30;33.30;;;9.60;99.90;;;;;;5009331;28;20425;-52
2022/11/05 01:27:20;;;;;;;36.37;32.67;;;9.60;99.90;;;;;;5005948;28;20179;-49
2022/11/05 01:29:45;;;;;;;36.60;33.00;;;9.60;99.90;;;;;;4990344;28;20188;-52
2022/11/05 01:32:11;;;;;;;36.57;32.80;;;9.60;99.90;;;;;;5002206;28;20171;-50
2022/11/05 01:34:37;;;;;;;36.13;32.17;;;9.70;99.90;;;;;;5005237;28;20344;-50
2022/11/05 01:37:02;;;;;;;36.43;32.93;;;9.60;99.90;;;;;;4992713;28;20187;-48
2022/11/05 01:39:28;;;;;;;36.57;33.03;;;9.60;99.90;;;;;;5004116;28;20601;-51
2022/11/05 01:41:53;;;;;;;35.97;32.53;;;9.60;99.90;;;;;;5009155;28;20182;-48
2022/11/05 01:44:57;;;;;;;37.90;33.87;;;9.70;99.90;;;;;;4994979;28;20191;-50
2022/11/05 01:47:28;;;;;;;37.47;33.70;;;9.70;99.90;;;;;;4989726;28;20586;-48
2022/11/05 01:49:58;;;;;;;36.93;33.10;;;9.70;99.90;;;;;;5003133;28;20517;-48
2022/11/05 01:52:25;;;;;;;38.50;34.70;;;9.70;99.90;;;;;;4993781;28;20520;-50
2022/11/05 01:54:51;;;;;;;38.73;34.83;;;9.70;99.90;;;;;;5010769;28;20417;-53
2022/11/05 01:57:17;;;;;;;38.27;34.30;;;9.60;99.90;;;;;;5003708;28;21082;-48
2022/11/05 01:59:47;;;;;;;36.90;33.33;;;9.60;99.90;;;;;;5009968;28;20426;-52
2022/11/05 02:02:12;;;;;;;36.63;32.93;;;9.60;99.90;;;;;;5000794;28;20210;-53
2022/11/05 02:04:43;;;;;;;35.80;32.10;;;9.60;99.90;;;;;;5004556;28;20442;-50
2022/11/05 02:07:10;;;;;;;35.53;32.03;;;9.60;99.90;;;;;;4998927;28;20187;-47
2022/11/05 02:09:40;;;;;;;34.50;31.30;;;9.60;99.90;;;;;;4998227;28;20446;-49
2022/11/05 02:12:07;;;;;;;33.50;30.30;;;9.60;99.90;;;;;;5006970;28;21350;-52
2022/11/05 02:14:32;;;;;;;32.43;29.23;;;9.70;99.90;;;;;;5012560;28;20466;-47
2022/11/05 02:17:09;;;;;;;33.57;30.30;;;9.70;99.90;;;;;;5011894;28;20464;-49
2022/11/05 02:20:05;;;;;;;32.50;29.60;;;9.60;99.90;;;;;;5001532;28;20460;-46
2022/11/05 02:22:45;;;;;;;31.20;28.57;;;9.60;99.90;;;;;;5009179;28;20439;-47
2022/11/05 02:25:34;;;;;;;31.33;28.63;;;9.50;99.90;;;;;;5011831;28;20414;-48
2022/11/05 02:28:35;;;;;;;31.60;28.70;;;9.60;99.90;;;;;;5008435;28;20426;-48
2022/11/05 02:31:07;;;;;;;31.90;29.20;;;9.60;99.90;;;;;;5008622;28;20449;-49
2022/11/05 02:33:37;;;;;;;30.30;27.57;;;9.50;99.90;;;;;;4997712;28;20485;-50
2022/11/05 02:36:41;;;;;;;31.07;28.37;;;9.50;99.90;;;;;;5011124;28;20414;-47
2022/11/05 02:39:18;;;;;;;31.43;28.53;;;9.60;99.90;;;;;;4995419;28;20485;-48
2022/11/05 02:42:05;;;;;;;30.83;28.13;;;9.50;99.90;;;;;;5005355;28;20761;-48
2022/11/05 02:45:08;;;;;;;31.00;28.30;;;9.50;99.90;;;;;;4993093;28;21123;-50
2022/11/05 02:47:49;;;;;;;32.20;29.20;;;9.50;99.90;;;;;;4993468;28;20442;-52
2022/11/05 02:50:27;;;;;;;32.10;29.23;;;9.50;99.90;;;;;;5003739;28;20464;-48
2022/11/05 02:53:00;;;;;;;34.23;31.03;;;9.50;99.90;;;;;;5002880;28;20455;-48
2022/11/05 02:55:45;;;;;;;33.03;29.80;;;9.50;99.90;;;;;;4992471;28;20836;-49
2022/11/05 02:58:12;;;;;;;33.87;30.87;;;9.50;99.90;;;;;;5002705;28;20442;-52
2022/11/05 03:00:57;;;;;;;33.47;30.47;;;9.50;99.90;;;;;;5005343;28;20434;-53
2022/11/05 03:03:32;;;;;;;32.87;29.90;;;9.50;99.90;;;;;;5008088;28;20920;-47
2022/11/05 03:06:01;;;;;;;33.73;30.60;;;9.50;99.90;;;;;;5007965;28;20935;-51
2022/11/05 03:08:58;;;;;;;32.63;29.80;;;9.50;99.90;;;;;;5008203;28;20446;-48
2022/11/05 03:11:27;;;;;;;33.83;30.53;;;9.50;99.90;;;;;;5005415;28;20923;-49
2022/11/05 03:14:31;;;;;;;34.80;31.50;;;9.50;99.90;;;;;;5004281;28;20542;-49
2022/11/05 03:17:01;;;;;;;35.20;31.67;;;9.50;99.90;;;;;;4999624;28;20516;-52
2022/11/05 03:19:39;;;;;;;32.50;29.50;;;9.50;99.90;;;;;;5014266;28;20529;-49
2022/11/05 03:22:12;;;;;;;32.30;29.20;;;9.60;99.90;;;;;;5005711;28;20438;-46
2022/11/05 03:24:44;;;;;;;33.50;30.47;;;9.50;99.90;;;;;;4991148;28;20509;-47
2022/11/05 03:27:14;;;;;;;32.33;29.33;;;9.50;99.90;;;;;;4994640;28;20450;-46
2022/11/05 03:29:48;;;;;;;31.70;28.80;;;9.50;99.90;;;;;;5011230;28;20461;-51
2022/11/05 03:32:16;;;;;;;30.20;27.57;;;9.60;99.90;;;;;;5009518;28;21137;-48
2022/11/05 03:34:48;;;;;;;33.23;29.77;;;9.50;99.90;;;;;;5011144;28;20500;-51
2022/11/05 03:37:18;;;;;;;32.40;29.20;;;9.50;99.90;;;;;;5009556;28;20500;-47
2022/11/05 03:39:54;;;;;;;33.17;30.37;;;9.60;99.90;;;;;;5010776;28;20904;-49
2022/11/05 03:42:25;;;;;;;32.80;29.57;;;9.60;99.90;;;;;;4996006;28;20439;-49
2022/11/05 03:44:55;;;;;;;32.83;29.93;;;9.60;99.90;;;;;;4991496;28;21256;-48
2022/11/05 03:47:26;;;;;;;33.30;30.20;;;9.60;99.90;;;;;;4991063;28;20447;-50
2022/11/05 03:50:12;;;;;;;33.83;30.53;;;9.60;99.90;;;;;;4991146;28;20858;-52
2022/11/05 03:52:50;;;;;;;31.07;28.53;;;9.60;99.90;;;;;;5005639;28;20555;-51
2022/11/05 03:55:15;;;;;;;31.53;28.80;;;9.60;99.90;;;;;;5006544;28;20783;-48
2022/11/05 03:57:45;;;;;;;32.47;29.53;;;9.60;99.90;;;;;;4991221;28;20384;-50
2022/11/05 04:00:12;;;;;;;34.33;31.07;;;9.60;99.90;;;;;;4990788;28;20159;-53
2022/11/05 04:02:38;;;;;;;33.90;31.00;;;9.60;99.90;;;;;;4990671;28;20451;-46
2022/11/05 04:05:04;;;;;;;34.73;31.50;;;9.60;99.90;;;;;;4992942;28;20414;-52
2022/11/05 04:18:26;;;;;;;35.30;31.87;;;9.60;99.90;;;;;;5007570;28;21545;-48
2022/11/05 04:26:22;;;;;;;38.07;33.97;;;9.60;99.90;;;;;;5009656;28;20814;-52
2022/11/05 04:31:33;;;;;;;39.37;35.20;;;9.70;99.90;;;;;;5010078;28;20495;-49
2022/11/05 04:33:58;;;;;;;40.23;35.87;;;9.60;99.90;;;;;;5002797;28;21065;-51
2022/11/05 04:36:24;;;;;;;41.07;36.77;;;9.60;99.90;;;;;;4990053;28;20271;-49
2022/11/05 04:38:49;;;;;;;39.03;34.93;;;9.60;99.90;;;;;;5004019;28;20245;-51
2022/11/05 04:41:16;;;;;;;41.73;35.30;;;9.60;99.90;;;;;;5009825;28;20178;-51
2022/11/05 04:43:42;;;;;;;41.20;35.70;;;9.60;99.90;;;;;;5007684;28;20266;-48
2022/11/05 04:46:08;;;;;;;39.20;35.03;;;9.60;99.90;;;;;;4990160;28;20917;-52
2022/11/05 04:48:33;;;;;;;39.33;35.07;;;9.60;99.90;;;;;;4990214;28;20925;-51
2022/11/05 04:50:59;;;;;;;39.10;34.47;;;9.60;99.90;;;;;;4990572;28;20446;-49
2022/11/05 04:53:25;;;;;;;41.90;35.87;;;9.50;99.90;;;;;;5000198;28;20361;-53
2022/11/05 04:55:50;;;;;;;46.00;36.43;;;9.60;99.90;;;;;;5005823;28;20660;-48
2022/11/05 04:58:16;;;;;;;40.07;35.60;;;9.60;99.90;;;;;;5003139;28;20266;-47
2022/11/05 05:00:42;;;;;;;38.90;34.70;;;9.50;99.90;;;;;;5009520;28;20236;-51
2022/11/05 05:03:07;;;;;;;38.43;34.30;;;9.60;99.90;;;;;;4998689;28;20666;-50
2022/11/05 05:05:33;;;;;;;44.00;34.40;;;9.60;99.90;;;;;;4996190;28;20947;-50
2022/11/05 05:08:03;;;;;;;38.33;34.20;;;9.50;99.90;;;;;;5008364;28;20560;-49
2022/11/05 05:10:29;;;;;;;38.67;34.53;;;9.60;99.90;;;;;;4999648;28;20190;-48
2022/11/05 05:12:55;;;;;;;39.00;35.00;;;9.60;99.90;;;;;;4996008;28;20472;-46
2022/11/05 05:15:21;;;;;;;38.83;33.90;;;9.60;99.90;;;;;;5009206;28;20410;-49
2022/11/05 05:17:51;;;;;;;41.27;34.07;;;9.60;99.90;;;;;;5005719;28;20446;-53
2022/11/05 05:23:02;;;;;;;41.20;34.63;;;9.60;99.90;;;;;;5002984;28;20943;-50
2022/11/05 05:25:28;;;;;;;38.67;33.90;;;9.60;99.90;;;;;;4995539;28;20429;-49
2022/11/05 05:27:56;;;;;;;37.83;33.97;;;9.60;99.90;;;;;;4991870;28;20439;-51
2022/11/05 05:30:22;;;;;;;40.33;34.37;;;9.60;99.90;;;;;;4997789;28;20183;-48
2022/11/05 05:32:48;;;;;;;39.10;35.00;;;9.60;99.90;;;;;;5010388;28;20508;-53
2022/11/05 05:35:13;;;;;;;38.60;34.60;;;9.60;99.90;;;;;;5000728;28;20183;-51
2022/11/05 05:37:39;;;;;;;39.13;35.13;;;9.60;99.90;;;;;;5008658;28;20183;-47
2022/11/05 05:40:05;;;;;;;41.37;36.63;;;9.60;99.90;;;;;;5012849;28;20210;-50
2022/11/05 05:42:31;;;;;;;39.37;35.10;;;9.60;99.90;;;;;;4998838;28;20820;-48
2022/11/05 05:44:57;;;;;;;39.37;35.10;;;9.60;99.90;;;;;;5007350;28;20446;-50
2022/11/05 05:47:22;;;;;;;37.30;33.60;;;9.60;99.90;;;;;;5004912;28;20183;-52
2022/11/05 05:49:48;;;;;;;43.13;35.83;;;9.60;99.90;;;;;;5010328;28;20187;-49
2022/11/05 05:52:13;;;;;;;39.60;35.30;;;9.60;99.90;;;;;;5012830;28;20492;-48
2022/11/05 05:54:39;;;;;;;39.23;35.27;;;9.60;99.90;;;;;;5011475;28;20211;-47
2022/11/05 05:57:04;;;;;;;39.80;34.20;;;9.60;99.90;;;;;;5010984;28;20175;-50
2022/11/05 05:59:30;;;;;;;38.67;34.47;;;9.70;99.90;;;;;;5011470;28;20519;-50
2022/11/05 06:01:56;;;;;;;41.37;34.80;;;9.60;99.90;;;;;;5010130;28;20237;-50
2022/11/05 06:04:21;;;;;;;40.00;35.90;;;9.60;99.90;;;;;;5010934;28;20187;-49
2022/11/05 06:06:47;;;;;;;41.00;35.50;;;9.60;99.90;;;;;;5009324;28;20306;-49
2022/11/05 06:09:13;;;;;;;40.07;35.60;;;9.60;99.90;;;;;;4999297;28;20188;-48
2022/11/05 06:11:40;;;;;;;38.70;34.13;;;9.50;99.90;;;;;;5010853;28;20671;-48
2022/11/05 06:14:08;;;;;;;39.93;35.57;;;9.50;99.90;;;;;;5011080;28;20469;-49
2022/11/05 06:16:34;;;;;;;40.17;36.00;;;9.50;99.90;;;;;;5007716;28;20445;-49
2022/11/05 06:19:01;;;;;;;40.20;35.90;;;9.50;99.90;;;;;;5007124;28;21019;-49
2022/11/05 06:21:27;;;;;;;39.90;35.60;;;9.50;99.90;;;;;;4999939;28;20462;-47
2022/11/05 06:23:52;;;;;;;40.93;36.60;;;9.50;99.90;;;;;;5001410;28;20504;-53
2022/11/05 06:26:18;;;;;;;39.27;35.00;;;9.50;99.90;;;;;;5000225;28;20554;-52
2022/11/05 06:28:44;;;;;;;40.83;36.43;;;9.50;99.90;;;;;;4993398;28;20183;-51
2022/11/05 06:31:12;;;;;;;40.73;36.33;;;9.50;99.90;;;;;;5003658;28;20491;-48
2022/11/05 06:33:38;;;;;;;39.43;35.10;;;9.50;99.90;;;;;;5008605;28;20463;-48
2022/11/05 06:36:05;;;;;;;38.20;34.20;;;9.50;99.90;;;;;;5002452;28;21195;-49
2022/11/05 06:38:32;;;;;;;39.63;35.40;;;9.50;99.90;;;;;;5009683;28;20423;-51
2022/11/05 06:40:58;;;;;;;39.73;35.47;;;9.50;99.90;;;;;;5010042;28;20441;-51
2022/11/05 06:43:24;;;;;;;39.20;35.07;;;9.60;99.90;;;;;;5006179;28;20929;-51
2022/11/05 06:45:50;;;;;;;40.57;34.73;;;9.60;99.90;;;;;;4994602;28;20497;-49
2022/11/05 06:48:15;;;;;;;37.13;33.20;;;9.60;99.90;;;;;;5005798;28;20461;-54
2022/11/05 06:50:45;;;;;;;38.03;34.13;;;9.60;99.90;;;;;;5003736;28;20940;-50
2022/11/05 06:53:11;;;;;;;31.57;20.90;;;9.60;99.90;;;;;;5000751;28;20207;-53
2022/11/05 06:55:36;;;;;;;40.17;19.93;;;9.70;99.90;;;;;;5010404;28;20469;-54
2022/11/05 06:58:03;;;;;;;31.67;21.13;;;9.70;99.90;;;;;;5011537;28;20422;-48
2022/11/05 07:00:28;;;;;;;38.67;34.80;;;9.70;99.90;;;;;;5005413;28;20187;-51
2022/11/05 07:02:57;;;;;;;41.33;33.50;;;9.80;99.90;;;;;;4998544;28;20439;-49
2022/11/05 07:05:23;;;;;;;33.27;29.70;;;9.80;99.90;;;;;;5009463;28;20198;-52
2022/11/05 07:07:48;;;;;;;33.43;29.67;;;9.80;99.90;;;;;;5008254;28;20439;-49
2022/11/05 07:10:16;;;;;;;34.63;29.67;;;9.80;99.90;;;;;;5004362;28;20505;-49
2022/11/05 07:12:42;;;;;;;32.67;27.87;;;9.80;99.90;;;;;;4996981;28;20236;-48
2022/11/05 07:15:09;;;;;;;35.90;30.17;;;9.80;99.90;;;;;;4997247;28;20446;-49
2022/11/05 07:17:35;;;;;;;37.50;29.90;;;9.80;99.90;;;;;;5000226;28;20446;-50
2022/11/05 07:20:00;;;;;;;33.97;27.63;;;9.90;99.90;;;;;;4995478;28;20502;-48
2022/11/05 07:22:26;;;;;;;34.93;29.97;;;9.90;99.90;;;;;;4993495;28;20261;-49
2022/11/05 07:24:51;;;;;;;46.20;41.40;;;9.90;99.90;;;;;;4996616;28;20202;-49
2022/11/05 07:27:17;;;;;;;34.53;27.50;;;9.90;99.90;;;;;;5002040;28;20274;-48
2022/11/05 07:29:42;;;;;;;32.10;27.07;;;10.00;99.90;;;;;;4994415;28;21257;-53
2022/11/05 07:32:08;;;;;;;32.23;28.73;;;10.00;99.90;;;;;;4982398;28;20203;-49
2022/11/05 07:34:34;;;;;;;74.07;54.27;;;10.00;99.90;;;;;;4988907;28;20216;-52
2022/11/05 07:36:59;;;;;;;36.00;27.80;;;9.90;99.90;;;;;;5000623;28;20191;-49
2022/11/05 07:39:25;;;;;;;36.23;30.63;;;9.90;99.90;;;;;;4992859;28;20194;-48
2022/11/05 07:41:53;;;;;;;30.50;27.37;;;9.90;99.90;;;;;;4999299;28;20182;-50
2022/11/05 07:44:19;;;;;;;47.53;33.40;;;9.90;99.90;;;;;;4996146;28;20191;-50
2022/11/05 07:46:45;;;;;;;28.27;18.40;;;9.90;99.90;;;;;;4983928;28;21016;-52
2022/11/05 07:49:10;;;;;;;49.57;39.40;;;9.90;99.90;;;;;;4989528;28;20194;-49
2022/11/05 07:51:36;;;;;;;33.93;28.17;;;9.90;99.90;;;;;;5001697;28;20695;-45
2022/11/05 07:54:01;;;;;;;36.50;31.57;;;9.90;99.90;;;;;;5000577;28;20203;-51
2022/11/05 07:56:27;;;;;;;31.10;27.87;;;10.00;99.90;;;;;;5006086;28;20195;-50
2022/11/05 07:58:52;;;;;;;31.53;28.03;;;10.00;99.90;;;;;;5010293;28;20634;-51
2022/11/05 08:01:18;;;;;;;32.00;28.90;;;10.00;99.90;;;;;;5010257;28;20630;-54
2022/11/05 08:03:43;;;;;;;30.40;27.40;;;10.00;99.90;;;;;;4998411;28;20635;-49
2022/11/05 08:06:09;;;;;;;30.77;27.10;;;10.00;99.90;;;;;;5008894;28;20713;-49
2022/11/05 08:08:35;;;;;;;31.93;28.53;;;10.00;99.90;;;;;;4999462;28;20239;-49
2022/11/05 08:11:09;;;;;;;29.00;26.23;;;10.00;99.90;;;;;;4990542;28;20998;-49
2022/11/05 08:13:36;;;;;;;29.23;25.57;;;10.00;99.90;;;;;;4996932;28;20214;-53
2022/11/05 08:16:02;;;;;;;35.93;32.17;;;10.00;99.90;;;;;;4996129;28;20541;-48
2022/11/05 08:18:32;;;;;;;28.00;25.20;;;10.10;99.90;;;;;;5003394;28;20584;-51
2022/11/05 08:21:00;;;;;;;30.43;27.37;;;10.10;99.90;;;;;;5004666;28;20988;-54
2022/11/05 08:23:27;;;;;;;33.20;26.20;;;10.10;99.90;;;;;;4990569;28;20427;-50
2022/11/05 08:25:54;;;;;;;28.60;25.80;;;10.10;99.90;;;;;;4990450;28;20513;-50
2022/11/05 08:28:20;;;;;;;32.93;29.40;;;10.20;99.90;;;;;;4990524;28;20480;-51
2022/11/05 08:30:55;;;;;;;28.03;25.27;;;10.20;99.90;;;;;;4990152;28;20907;-50
2022/11/05 08:33:21;;;;;;;91.23;63.63;;;10.30;99.90;;;;;;4991440;28;20461;-49
2022/11/05 08:35:47;;;;;;;38.93;33.83;;;10.40;99.90;;;;;;4994565;28;20473;-54
2022/11/05 08:38:15;;;;;;;27.00;23.90;;;10.40;99.90;;;;;;5000125;28;20445;-49
2022/11/05 08:40:42;;;;;;;26.53;23.60;;;10.40;99.90;;;;;;5008375;28;20513;-50
2022/11/05 08:43:10;;;;;;;31.70;28.40;;;10.40;99.90;;;;;;5006494;28;20422;-48
2022/11/05 08:45:36;;;;;;;26.00;23.20;;;10.40;99.90;;;;;;4998122;28;20480;-50
2022/11/05 08:48:16;;;;;;;30.10;26.10;;;10.40;99.90;;;;;;4998311;28;20534;-51
2022/11/05 08:50:44;;;;;;;243.07;128.37;;;10.40;99.90;;;;;;4994158;28;20438;-52
2022/11/05 08:53:09;;;;;;;64.23;43.90;;;10.50;99.90;;;;;;5009506;28;20956;-47
2022/11/05 08:55:35;;;;;;;33.50;28.83;;;10.50;99.90;;;;;;5009436;28;20418;-54
2022/11/05 08:58:06;;;;;;;28.57;23.00;;;10.60;99.90;;;;;;4993210;28;20184;-52
2022/11/05 09:00:34;;;;;;;30.10;27.00;;;10.70;99.90;;;;;;4990021;28;20411;-53
2022/11/05 09:03:01;;;;;;;24.50;22.30;;;10.80;99.90;;;;;;4991921;28;20422;-54
2022/11/05 09:05:27;;;;;;;25.97;23.17;;;10.80;99.90;;;;;;4994222;28;20423;-51
2022/11/05 09:07:53;;;;;;;29.27;26.50;;;10.80;99.90;;;;;;4994177;28;20427;-50
2022/11/05 09:10:19;;;;;;;27.80;25.03;;;10.80;99.90;;;;;;4994057;28;20502;-52
2022/11/05 09:12:44;;;;;;;24.27;21.80;;;10.80;99.90;;;;;;4993396;28;20194;-53
2022/11/05 09:15:10;;;;;;;22.33;20.03;;;10.90;99.90;;;;;;5004352;28;20190;-50
2022/11/05 09:17:36;;;;;;;20.80;18.63;;;10.90;99.90;;;;;;4997611;28;20219;-51
2022/11/05 09:20:03;;;;;;;22.00;19.90;;;11.00;99.90;;;;;;5001697;28;20478;-48
2022/11/05 09:22:29;;;;;;;23.00;20.63;;;11.10;99.90;;;;;;4993692;28;20208;-49
2022/11/05 09:24:54;;;;;;;23.90;21.50;;;11.10;99.90;;;;;;4994557;28;20940;-49
2022/11/05 09:27:20;;;;;;;23.83;21.40;;;11.20;99.90;;;;;;4999840;28;20443;-51
2022/11/05 09:29:45;;;;;;;32.87;29.50;;;11.30;99.90;;;;;;4995475;28;20230;-53
2022/11/05 09:32:11;;;;;;;22.30;20.10;;;11.30;99.90;;;;;;4987813;28;20183;-52
2022/11/05 09:34:37;;;;;;;38.50;32.53;;;11.40;99.90;;;;;;4986744;28;20196;-49
2022/11/05 09:37:03;;;;;;;22.73;20.27;;;11.40;99.90;;;;;;4994390;28;20266;-50
2022/11/05 09:39:28;;;;;;;22.70;20.27;;;11.40;99.90;;;;;;4989178;28;20196;-48
2022/11/05 09:42:00;;;;;;;21.37;19.10;;;11.50;99.90;;;;;;4995192;28;20976;-52
2022/11/05 09:44:50;;;;;;;21.60;19.60;;;11.50;99.90;;;;;;5003412;28;20187;-51
2022/11/05 09:47:39;;;;;;;22.60;20.60;;;11.70;99.90;;;;;;5010761;28;20446;-51
2022/11/05 09:50:18;;;;;;;21.63;19.73;;;11.80;99.90;;;;;;4996145;28;20444;-51
2022/11/05 09:52:44;;;;;;;26.80;24.30;;;11.90;99.90;;;;;;4993792;28;20472;-50
2022/11/05 09:55:24;;;;;;;28.53;25.53;;;12.00;99.90;;;;;;4986412;28;20439;-51
2022/11/05 09:58:02;;;;;;;26.13;23.60;;;12.00;99.90;;;;;;5001267;28;20239;-51
2022/11/05 10:00:30;;;;;;;19.93;17.93;;;12.10;99.90;;;;;;4990560;28;20803;-48
2022/11/05 10:03:05;;;;;;;19.77;17.97;;;12.00;99.90;;;;;;4985326;28;20444;-49
2022/11/05 10:05:32;;;;;;;19.70;18.00;;;12.00;99.90;;;;;;4995886;28;20444;-50
2022/11/05 10:08:13;;;;;;;19.50;17.60;;;11.90;99.90;;;;;;4996423;28;20623;-52
2022/11/05 10:10:46;;;;;;;19.20;17.17;;;11.90;99.90;;;;;;4999986;28;20433;-53
2022/11/05 10:13:32;;;;;;;18.30;16.60;;;12.20;99.90;;;;;;4984488;28;20475;-52
2022/11/05 10:16:00;;;;;;;18.03;16.23;;;12.40;99.90;;;;;;4992409;28;20546;-53
2022/11/05 10:18:39;;;;;;;17.90;16.30;;;12.40;99.90;;;;;;4987872;28;20438;-49
2022/11/05 10:21:06;;;;;;;18.87;16.97;;;12.40;99.90;;;;;;4999510;28;21220;-54
2022/11/05 10:23:32;;;;;;;17.87;16.10;;;12.60;99.90;;;;;;5000184;28;20571;-50
2022/11/05 10:26:09;;;;;;;18.17;16.27;;;12.80;99.90;;;;;;4995220;28;20440;-49
2022/11/05 10:28:35;;;;;;;17.70;15.80;;;12.90;99.90;;;;;;4992026;28;20515;-48
2022/11/05 10:31:03;;;;;;;16.90;15.33;;;12.90;99.90;;;;;;4991404;28;20514;-51
2022/11/05 10:33:46;;;;;;;17.23;15.60;;;12.90;99.90;;;;;;4985835;28;20770;-50
2022/11/05 10:36:19;;;;;;;16.97;14.93;;;12.90;99.90;;;;;;4999762;28;20429;-53
2022/11/05 10:38:45;;;;;;;17.00;15.40;;;13.00;99.90;;;;;;4994119;28;20440;-51
2022/11/05 10:41:21;;;;;;;15.67;14.57;;;13.20;99.90;;;;;;4997156;28;20423;-49
2022/11/05 10:43:51;;;;;;;15.83;14.20;;;13.60;99.90;;;;;;4997853;28;20241;-48
2022/11/05 10:46:44;;;;;;;14.63;13.33;;;14.00;99.90;;;;;;4998931;28;20953;-49
2022/11/05 10:49:55;;;;;;;15.73;14.20;;;14.20;99.90;;;;;;5000191;28;20814;-47
2022/11/05 10:52:37;;;;;;;14.90;13.60;;;14.30;99.90;;;;;;4988212;28;20464;-51
2022/11/05 10:55:40;;;;;;;15.50;14.00;;;14.80;99.90;;;;;;5006121;28;20445;-53
2022/11/05 10:58:34;;;;;;;15.40;14.13;;;15.50;99.90;;;;;;5001854;28;20439;-51
2022/11/05 11:01:03;;;;;;;15.40;14.00;;;16.10;99.90;;;;;;5009116;28;20465;-51
2022/11/05 11:03:41;;;;;;;15.23;13.90;;;16.70;99.90;;;;;;5009205;28;20919;-51
2022/11/05 11:06:27;;;;;;;14.60;13.50;;;17.00;99.90;;;;;;5000153;28;21417;-50
2022/11/05 11:08:55;;;;;;;14.70;13.70;;;17.50;99.90;;;;;;4990614;28;20469;-49
2022/11/05 11:11:32;;;;;;;14.20;12.80;;;17.30;99.90;;;;;;4999139;28;20426;-51
2022/11/05 11:14:12;;;;;;;15.70;14.13;;;16.90;98.70;;;;;;5001603;28;20461;-53
2022/11/05 11:16:44;;;;;;;14.97;13.63;;;16.40;99.50;;;;;;4993624;28;20489;-48
2022/11/05 11:19:33;;;;;;;13.90;12.70;;;15.60;99.90;;;;;;4991093;28;21027;-50
2022/11/05 11:22:04;;;;;;;14.63;13.23;;;15.00;99.90;;;;;;5000569;28;20974;-51
2022/11/05 11:24:52;;;;;;;16.10;13.50;;;14.60;99.90;;;;;;4993134;28;20563;-52
2022/11/05 11:27:21;;;;;;;15.27;13.67;;;14.50;99.90;;;;;;4991918;28;20477;-51
2022/11/05 11:29:58;;;;;;;17.13;14.60;;;14.30;99.90;;;;;;5008683;28;20418;-54
2022/11/05 11:32:38;;;;;;;13.50;12.50;;;13.80;99.90;;;;;;5006664;28;20437;-53
2022/11/05 11:35:07;;;;;;;14.43;13.23;;;13.70;99.90;;;;;;5000451;28;20433;-48
2022/11/05 11:37:40;;;;;;;13.53;12.63;;;13.30;99.90;;;;;;4996492;28;20458;-49
2022/11/05 11:40:19;;;;;;;14.23;13.00;;;13.10;99.90;;;;;;4994746;28;20451;-47
2022/11/05 11:42:47;;;;;;;13.03;12.00;;;12.80;99.90;;;;;;4998641;28;20470;-48
2022/11/05 11:45:22;;;;;;;13.83;12.43;;;13.10;99.90;;;;;;5007584;28;20437;-49
2022/11/05 11:47:49;;;;;;;12.90;11.80;;;13.90;99.90;;;;;;4997833;28;20447;-52
2022/11/05 11:50:31;;;;;;;12.00;11.10;;;15.00;99.90;;;;;;5008785;28;20508;-49
2022/11/05 11:53:19;;;;;;;13.00;11.70;;;16.50;99.90;;;;;;5003071;28;20467;-50
2022/11/05 11:55:58;;;;;;;11.73;11.03;;;17.60;99.90;;;;;;4996706;28;20483;-55
2022/11/05 11:58:44;;;;;;;12.20;11.20;;;18.80;92.50;;;;;;5009310;28;20437;-50
2022/11/05 12:01:43;;;;;;;11.47;10.60;;;19.40;90.20;;;;;;5000783;28;20430;-50
2022/11/05 12:04:17;;;;;;;10.93;9.97;;;19.40;77.20;;;;;;4991269;28;20453;-47
2022/11/05 12:07:21;;;;;;;11.37;10.50;;;19.20;77.80;;;;;;4995530;28;21357;-52
2022/11/05 12:10:01;;;;;;;11.20;10.27;;;18.90;77.90;;;;;;5006873;28;20492;-52
2022/11/05 12:12:51;;;;;;;10.47;9.70;;;17.80;87.70;;;;;;5006181;28;20537;-48
2022/11/05 12:15:52;;;;;;;12.20;11.20;;;17.40;90.30;;;;;;5007587;28;20457;-54
2022/11/05 12:18:44;;;;;;;11.50;10.70;;;16.90;91.30;;;;;;4991165;28;20423;-48
2022/11/05 12:21:23;;;;;;;11.67;10.60;;;16.80;91.40;;;;;;5009997;28;21038;-49
2022/11/05 12:23:51;;;;;;;11.70;10.87;;;17.40;90.90;;;;;;5005748;28;20531;-52
2022/11/05 12:26:22;;;;;;;11.40;10.43;;;18.10;88.00;;;;;;5008529;28;20464;-49
2022/11/05 12:29:26;;;;;;;11.63;10.83;;;18.60;85.90;;;;;;5008018;28;20449;-52
2022/11/05 12:32:14;;;;;;;11.27;10.30;;;19.40;76.50;;;;;;5008688;28;20435;-49
2022/11/05 12:35:09;;;;;;;10.30;9.63;;;19.70;71.20;;;;;;4995975;28;20512;-50
2022/11/05 12:37:50;;;;;;;11.37;10.67;;;20.00;67.30;;;;;;4995056;28;20446;-49
2022/11/05 12:40:45;;;;;;;11.30;10.60;;;20.00;65.00;;;;;;5005212;28;20798;-49
2022/11/05 12:43:23;;;;;;;12.10;10.73;;;20.50;66.40;;;;;;4997654;28;20430;-52
2022/11/05 12:46:19;;;;;;;10.87;10.27;;;20.70;67.90;;;;;;5007240;28;20444;-51
2022/11/05 12:48:55;;;;;;;11.97;10.90;;;20.80;60.40;;;;;;4996892;28;20438;-50
2022/11/05 12:51:59;;;;;;;10.60;9.80;;;19.80;66.30;;;;;;5007412;28;20468;-52
2022/11/05 12:55:03;;;;;;;10.67;9.67;;;18.80;70.60;;;;;;5004595;28;20468;-54
2022/11/05 12:57:31;;;;;;;11.00;10.20;;;17.80;72.10;;;;;;5006470;28;20433;-50
2022/11/05 13:00:02;;;;;;;11.27;10.30;;;17.00;76.20;;;;;;5000937;28;21155;-52
2022/11/05 13:02:41;;;;;;;11.27;10.27;;;16.10;82.00;;;;;;4990036;28;20491;-49
2022/11/05 13:05:19;;;;;;;10.73;9.90;;;15.40;90.60;;;;;;5005626;28;20472;-49
2022/11/05 13:08:30;;;;;;;10.60;9.77;;;15.00;93.30;;;;;;5001918;28;20483;-52
2022/11/05 13:11:22;;;;;;;10.67;9.77;;;14.50;93.30;;;;;;5004559;28;20531;-53
2022/11/05 13:14:12;;;;;;;11.10;10.00;;;14.30;98.20;;;;;;5007159;28;20495;-51
2022/11/05 13:16:52;;;;;;;11.73;10.60;;;14.20;99.90;;;;;;4989992;28;20409;-52
2022/11/05 13:19:35;;;;;;;12.30;11.17;;;14.10;99.90;;;;;;5007657;28;20437;-49
2022/11/05 13:22:34;;;;;;;12.00;10.80;;;14.00;99.90;;;;;;5000685;28;20454;-50
2022/11/05 13:25:18;;;;;;;10.90;10.00;;;14.10;99.90;;;;;;5004402;28;20474;-47
2022/11/05 13:28:15;;;;;;;11.70;10.70;;;14.00;99.90;;;;;;4989888;28;20404;-52
2022/11/05 13:30:50;;;;;;;11.00;10.13;;;13.90;99.90;;;;;;4995535;28;20468;-55
2022/11/05 13:33:22;;;;;;;11.37;10.60;;;13.90;99.90;;;;;;5006062;28;20477;-52
2022/11/05 13:39:11;;;;;;;11.73;10.70;;;13.90;99.90;;;;;;4998134;28;20546;-52
2022/11/05 13:41:49;;;;;;;11.63;10.83;;;13.90;99.90;;;;;;5006542;28;20523;-50
2022/11/05 13:44:45;;;;;;;12.20;11.07;;;14.10;99.90;;;;;;4996225;28;20425;-51
2022/11/05 13:47:19;;;;;;;11.00;10.30;;;14.60;99.90;;;;;;4998157;28;20452;-54
2022/11/05 13:50:14;;;;;;;11.27;10.43;;;15.20;98.80;;;;;;4998323;28;20776;-53